createdAt,value
2023-07-03T00:02:40.563Z,5.38
2023-07-03T00:07:32.504Z,6.38
2023-07-03T00:12:24.395Z,5.13
2023-07-03T00:17:16.461Z,5.88
2023-07-03T00:22:08.360Z,5.30
2023-07-03T00:27:00.821Z,4.90
2023-07-03T00:36:45.172Z,4.28
2023-07-03T00:41:37.084Z,4.07
2023-07-03T00:46:28.954Z,4.35
2023-07-03T00:51:20.898Z,3.92
2023-07-03T00:56:13.314Z,4.03
2023-07-03T01:06:04.233Z,3.83
2023-07-03T01:10:56.354Z,4.32
2023-07-03T01:15:49.399Z,4.22
2023-07-03T01:20:49.825Z,4.50
2023-07-03T01:25:42.928Z,4.70
2023-07-03T01:30:35.419Z,4.20
2023-07-03T01:35:27.909Z,4.55
2023-07-03T01:40:24.580Z,4.50
2023-07-03T01:45:16.899Z,4.18
2023-07-03T01:50:12.360Z,4.68
2023-07-03T01:55:33.598Z,4.00
2023-07-03T02:00:35.263Z,4.55
2023-07-03T02:05:29.521Z,4.10
2023-07-03T02:10:21.379Z,4.28
2023-07-03T02:15:15.582Z,4.35
2023-07-03T02:20:14.744Z,4.40
2023-07-03T02:25:07.156Z,4.22
2023-07-03T02:29:59.691Z,3.72
2023-07-03T02:34:51.564Z,4.60
2023-07-03T02:39:43.391Z,4.15
2023-07-03T02:44:36.521Z,4.45
2023-07-03T02:49:30.099Z,4.28
2023-07-03T02:54:25.352Z,4.18
2023-07-03T02:59:17.320Z,3.58
2023-07-03T03:04:09.257Z,4.28
2023-07-03T03:09:01.144Z,4.38
2023-07-03T03:13:55.951Z,3.85
2023-07-03T03:18:48.760Z,4.28
2023-07-03T03:23:41.104Z,3.60
2023-07-03T03:28:33.085Z,3.72
2023-07-03T03:33:25.349Z,3.80
2023-07-03T03:38:17.273Z,3.95
2023-07-03T03:43:09.330Z,3.78
2023-07-03T03:48:01.459Z,4.35
2023-07-03T03:52:53.556Z,3.75
2023-07-03T03:57:45.706Z,3.55
2023-07-03T04:02:37.636Z,4.20
2023-07-03T04:07:29.549Z,4.22
2023-07-03T04:12:21.340Z,3.90
2023-07-03T04:17:13.212Z,4.22
2023-07-03T04:22:05.348Z,3.83
2023-07-03T04:26:57.131Z,4.10
2023-07-03T04:31:48.960Z,3.85
2023-07-03T04:36:40.767Z,4.03
2023-07-03T04:41:32.550Z,4.03
2023-07-03T04:46:26.929Z,3.65
2023-07-03T04:51:18.994Z,3.72
2023-07-03T04:56:11.274Z,4.30
2023-07-03T05:01:04.039Z,3.75
2023-07-03T05:05:55.877Z,3.83
2023-07-03T05:10:47.646Z,3.83
2023-07-03T05:15:39.434Z,3.65
2023-07-03T05:20:31.345Z,3.40
2023-07-03T05:25:23.485Z,3.65
2023-07-03T05:30:15.408Z,3.72
2023-07-03T05:35:08.073Z,4.10
2023-07-03T05:39:59.946Z,3.50
2023-07-03T05:44:51.788Z,3.97
2023-07-03T05:49:44.241Z,3.88
2023-07-03T05:59:27.900Z,3.75
2023-07-03T06:04:20.378Z,3.35
2023-07-03T06:09:12.192Z,3.70
2023-07-03T06:14:03.973Z,3.38
2023-07-03T06:18:55.781Z,3.30
2023-07-03T06:23:47.558Z,3.45
2023-07-03T06:28:39.370Z,3.92
2023-07-03T06:33:31.242Z,3.63
2023-07-03T06:38:23.049Z,3.78
2023-07-03T06:43:14.836Z,3.53
2023-07-03T06:48:06.772Z,4.88
2023-07-03T06:52:58.733Z,3.35
2023-07-03T06:57:50.581Z,3.65
2023-07-03T07:02:42.460Z,3.30
2023-07-03T07:07:36.888Z,3.25
2023-07-03T07:12:28.761Z,3.08
2023-07-03T07:17:20.598Z,3.55
2023-07-03T07:22:12.382Z,3.33
2023-07-03T07:27:06.208Z,3.33
2023-07-03T07:31:58.388Z,3.13
2023-07-03T07:36:50.534Z,3.33
2023-07-03T07:41:42.847Z,3.47
2023-07-03T07:51:27.249Z,3.25
2023-07-03T07:56:19.732Z,2.92
2023-07-03T08:06:05.478Z,3.13
2023-07-03T08:10:58.702Z,3.13
2023-07-03T08:15:51.296Z,3.05
2023-07-03T08:20:44.044Z,3.30
2023-07-03T08:25:35.970Z,3.45
2023-07-03T08:30:27.976Z,3.20
2023-07-03T08:40:19.706Z,3.28
2023-07-03T08:45:14.020Z,3.55
2023-07-03T08:50:09.646Z,3.30
2023-07-03T08:55:04.026Z,3.78
2023-07-03T08:59:55.972Z,3.42
2023-07-03T09:05:15.252Z,3.38
2023-07-03T09:10:24.513Z,3.80
2023-07-03T09:15:28.785Z,3.63
2023-07-03T09:20:21.157Z,4.18
2023-07-03T09:30:14.965Z,3.53
2023-07-03T09:35:21.222Z,3.50
2023-07-03T09:40:16.578Z,3.25
2023-07-03T09:45:17.743Z,3.85
2023-07-03T09:50:10.432Z,3.03
2023-07-03T09:55:04.194Z,3.65
2023-07-03T10:00:11.815Z,3.08
2023-07-03T10:15:09.912Z,3.65
2023-07-03T10:20:06.031Z,3.42
2023-07-03T10:25:01.731Z,3.35
2023-07-03T10:29:56.913Z,3.33
2023-07-03T10:35:15.057Z,3.40
2023-07-03T10:40:16.955Z,3.40
2023-07-03T10:45:14.772Z,3.30
2023-07-03T10:50:08.559Z,3.33
2023-07-03T10:55:24.753Z,3.67
2023-07-03T11:00:41.894Z,4.03
2023-07-03T11:05:39.672Z,3.47
2023-07-03T11:10:31.553Z,3.85
2023-07-03T11:15:38.664Z,4.00
2023-07-03T11:30:54.361Z,3.65
2023-07-03T11:35:58.004Z,3.70
2023-07-03T11:40:55.704Z,3.28
2023-07-03T11:45:59.647Z,3.72
2023-07-03T11:50:57.525Z,3.75
2023-07-03T11:55:50.122Z,3.35
2023-07-03T12:00:42.678Z,3.60
2023-07-03T12:10:35.716Z,3.42
2023-07-03T12:15:27.555Z,3.00
2023-07-03T12:20:21.570Z,3.40
2023-07-03T12:25:21.520Z,3.50
2023-07-03T12:30:22.563Z,3.65
2023-07-03T12:35:20.204Z,3.47
2023-07-03T12:40:13.978Z,2.90
2023-07-03T12:45:27.812Z,3.03
2023-07-03T12:50:20.164Z,3.30
2023-07-03T13:00:16.622Z,3.15
2023-07-03T13:05:11.731Z,3.40
2023-07-03T13:10:13.584Z,3.30
2023-07-03T13:15:10.988Z,3.43
2023-07-03T13:20:26.002Z,3.60
2023-07-03T13:25:37.270Z,3.85
2023-07-03T13:30:35.507Z,3.55
2023-07-03T13:35:32.403Z,3.38
2023-07-03T13:40:24.450Z,4.00
2023-07-03T13:45:16.694Z,3.70
2023-07-03T13:50:08.884Z,3.78
2023-07-03T13:55:00.730Z,3.67
2023-07-03T13:59:52.477Z,3.67
2023-07-03T14:04:44.743Z,4.10
2023-07-03T14:09:36.665Z,4.13
2023-07-03T14:14:28.482Z,3.88
2023-07-03T14:19:20.287Z,4.43
2023-07-03T14:24:12.095Z,5.28
2023-07-03T14:29:03.947Z,5.10
2023-07-03T14:33:55.733Z,5.35
2023-07-03T14:38:47.832Z,5.23
2023-07-03T14:43:39.804Z,5.30
2023-07-03T14:48:31.723Z,5.60
2023-07-03T14:53:23.584Z,4.82
2023-07-03T14:58:15.389Z,5.05
2023-07-03T15:03:07.444Z,5.30
2023-07-03T15:08:00.318Z,5.70
2023-07-03T15:12:52.182Z,5.50
2023-07-03T15:17:44.129Z,5.35
2023-07-03T15:22:36.118Z,5.28
2023-07-03T15:27:28.018Z,4.97
2023-07-03T15:32:20.214Z,5.85
2023-07-03T15:37:12.079Z,5.45
2023-07-03T15:42:04.125Z,4.82
2023-07-03T15:46:56.105Z,7.45
2023-07-03T15:51:49.543Z,6.15
2023-07-03T15:56:41.463Z,5.78
2023-07-03T16:06:27.326Z,5.83
2023-07-03T16:11:21.397Z,6.07
2023-07-03T16:16:15.759Z,5.32
2023-07-03T16:21:10.402Z,5.78
2023-07-03T16:26:06.580Z,6.50
2023-07-03T16:31:02.562Z,5.90
2023-07-03T16:35:59.641Z,6.15
2023-07-03T16:40:51.572Z,5.53
2023-07-03T16:45:43.413Z,6.57
2023-07-03T16:50:35.342Z,5.28
2023-07-03T16:55:28.589Z,5.57
2023-07-03T17:00:20.742Z,5.30
2023-07-03T17:05:12.591Z,5.82
2023-07-03T17:10:04.774Z,5.97
2023-07-03T17:14:56.721Z,5.75
2023-07-03T17:19:48.607Z,5.95
2023-07-03T17:24:40.642Z,5.88
2023-07-03T17:29:32.621Z,5.70
2023-07-03T17:34:24.514Z,5.40
2023-07-03T17:39:16.359Z,5.22
2023-07-03T17:44:09.125Z,5.30
2023-07-03T17:49:01.125Z,10.65
2023-07-03T17:53:53.986Z,7.55
2023-07-03T17:58:45.881Z,6.97
2023-07-03T18:03:37.850Z,5.80
2023-07-03T18:08:29.819Z,6.75
2023-07-03T18:13:21.725Z,5.78
2023-07-03T18:18:13.627Z,2.85
2023-07-03T18:23:05.527Z,2.80
2023-07-03T18:27:57.411Z,2.50
2023-07-03T18:32:49.317Z,2.10
2023-07-03T18:37:41.254Z,2.65
2023-07-03T18:42:33.064Z,2.33
2023-07-03T18:47:28.560Z,2.53
2023-07-03T18:52:20.529Z,2.63
2023-07-03T18:57:12.370Z,2.60
2023-07-03T19:02:04.251Z,2.75
2023-07-03T19:06:56.150Z,2.75
2023-07-03T19:11:48.067Z,2.63
2023-07-03T19:16:40.137Z,3.50
2023-07-03T19:21:32.163Z,3.08
2023-07-03T19:26:23.932Z,3.17
2023-07-03T19:31:16.342Z,3.20
2023-07-03T19:41:07.246Z,3.65
2023-07-03T19:45:59.006Z,4.57
2023-07-03T19:50:51.994Z,4.22
2023-07-03T19:55:43.824Z,4.93
2023-07-03T20:00:35.775Z,4.22
2023-07-03T20:05:27.814Z,4.68
2023-07-03T20:10:19.808Z,5.15
2023-07-03T20:15:11.785Z,5.15
2023-07-03T20:20:05.221Z,4.57
2023-07-03T20:24:57.081Z,4.32
2023-07-03T20:29:50.737Z,4.30
2023-07-03T20:34:42.697Z,4.60
2023-07-03T20:39:35.909Z,4.50
2023-07-03T20:44:27.920Z,4.40
2023-07-03T20:49:19.923Z,4.10
2023-07-03T20:54:33.106Z,4.32
2023-07-03T20:59:25.089Z,4.38
2023-07-03T21:26:57.561Z,6.95
2023-07-03T21:31:49.342Z,8.00
2023-07-03T21:36:41.180Z,7.37
2023-07-03T21:41:34.857Z,8.13
2023-07-03T21:46:28.310Z,7.93
2023-07-03T21:51:20.757Z,7.40
2023-07-03T22:01:08.117Z,5.43
2023-07-03T22:05:59.958Z,4.68
2023-07-03T22:10:52.456Z,4.25
2023-07-03T22:20:36.493Z,3.58
2023-07-03T22:25:28.274Z,3.50
2023-07-03T22:30:20.222Z,3.38
2023-07-03T22:35:12.153Z,3.35
2023-07-03T22:40:14.929Z,3.45
2023-07-03T22:45:09.300Z,3.10
2023-07-03T22:50:04.120Z,2.85
2023-07-03T22:54:56.060Z,2.88
2023-07-03T22:59:49.367Z,2.90
2023-07-03T23:04:41.659Z,2.72
2023-07-03T23:14:25.269Z,2.50
2023-07-03T23:19:18.161Z,2.75
2023-07-03T23:24:09.983Z,2.53
2023-07-03T23:29:02.405Z,3.00
2023-07-03T23:38:46.096Z,2.65
2023-07-03T23:43:39.102Z,2.30
2023-07-03T23:48:31.782Z,2.72
2023-07-03T23:53:24.615Z,2.45
2023-07-03T23:58:16.619Z,2.53
